createdAt,value
2023-04-27T00:00:50.835Z,99506.44
2023-04-27T00:03:23.878Z,99515.31
2023-04-27T00:05:56.213Z,99516.13
2023-04-27T00:08:30.857Z,99516.81
2023-04-27T00:11:02.594Z,99513.22
2023-04-27T00:13:34.441Z,99514.47
2023-04-27T00:16:07.339Z,99510.50
2023-04-27T00:18:39.222Z,99505.81
2023-04-27T00:21:11.018Z,99505.16
2023-04-27T00:23:45.233Z,99514.00
2023-04-27T00:26:17.008Z,99512.22
2023-04-27T00:28:52.468Z,99504.31
2023-04-27T00:31:24.315Z,99512.34
2023-04-27T00:33:59.245Z,99507.91
2023-04-27T00:36:34.280Z,99505.44
2023-04-27T00:39:06.556Z,99502.41
2023-04-27T00:41:42.041Z,99507.81
2023-04-27T00:44:13.715Z,99497.44
2023-04-27T00:46:45.426Z,99503.50
2023-04-27T00:49:19.774Z,99506.97
2023-04-27T00:51:51.869Z,99507.13
2023-04-27T00:54:24.689Z,99512.69
2023-04-27T00:56:56.541Z,99503.25
2023-04-27T00:59:32.476Z,99512.28
2023-04-27T01:02:04.352Z,99503.03
2023-04-27T01:04:38.988Z,99505.56
2023-04-27T01:07:13.925Z,99506.13
2023-04-27T01:09:48.659Z,99502.97
2023-04-27T01:12:23.536Z,99502.28
2023-04-27T01:14:55.780Z,99503.53
2023-04-27T01:17:29.245Z,99502.97
2023-04-27T01:20:02.709Z,99501.63
2023-04-27T01:22:34.438Z,99505.50
2023-04-27T01:25:08.790Z,99509.66
2023-04-27T01:27:40.937Z,99518.78
2023-04-27T01:30:12.714Z,99511.63
2023-04-27T01:32:44.473Z,99517.44
2023-04-27T01:35:16.674Z,99513.56
2023-04-27T01:37:48.397Z,99514.53
2023-04-27T01:40:22.570Z,99514.66
2023-04-27T01:42:54.322Z,99513.19
2023-04-27T01:48:47.321Z,99527.53
2023-04-27T01:51:23.888Z,99523.09
2023-04-27T01:53:56.122Z,99519.53
2023-04-27T01:56:31.022Z,99530.00
2023-04-27T01:59:02.759Z,99532.78
2023-04-27T02:01:35.791Z,99532.94
2023-04-27T02:04:09.091Z,99539.00
2023-04-27T02:06:41.450Z,99538.19
2023-04-27T02:09:14.279Z,99539.97
2023-04-27T02:11:46.161Z,99541.75
2023-04-27T02:14:18.303Z,99536.94
2023-04-27T02:16:54.761Z,99543.97
2023-04-27T02:19:27.744Z,99537.75
2023-04-27T02:21:59.531Z,99535.13
2023-04-27T02:24:35.137Z,99541.47
2023-04-27T02:27:06.905Z,99538.31
2023-04-27T02:29:39.466Z,99537.59
2023-04-27T02:32:11.799Z,99546.31
2023-04-27T02:34:47.430Z,99545.47
2023-04-27T02:37:19.153Z,99547.56
2023-04-27T02:39:52.044Z,99540.53
2023-04-27T02:42:23.759Z,99543.28
2023-04-27T02:44:56.557Z,99546.97
2023-04-27T02:47:33.921Z,99545.19
2023-04-27T02:50:10.966Z,99546.31
2023-04-27T02:52:44.222Z,99544.34
2023-04-27T02:55:16.080Z,99552.63
2023-04-27T02:57:47.924Z,99551.09
2023-04-27T03:00:22.038Z,99551.69
2023-04-27T03:02:53.873Z,99548.50
2023-04-27T03:05:29.142Z,99554.31
2023-04-27T03:08:00.895Z,99546.72
2023-04-27T03:10:32.615Z,99549.34
2023-04-27T03:13:04.277Z,99554.00
2023-04-27T03:15:35.993Z,99552.63
2023-04-27T03:18:07.844Z,99551.09
2023-04-27T03:20:39.649Z,99550.56
2023-04-27T03:23:12.092Z,99549.03
2023-04-27T03:25:43.815Z,99560.63
2023-04-27T03:28:15.916Z,99569.56
2023-04-27T03:30:47.659Z,99560.75
2023-04-27T03:33:27.096Z,99563.38
2023-04-27T03:36:05.069Z,99566.97
2023-04-27T03:38:37.106Z,99562.66
2023-04-27T03:41:09.247Z,99571.25
2023-04-27T03:43:40.995Z,99571.94
2023-04-27T03:46:12.831Z,99569.03
2023-04-27T03:48:48.287Z,99571.81
2023-04-27T03:51:20.117Z,99569.19
2023-04-27T03:53:51.981Z,99578.56
2023-04-27T03:56:23.742Z,99575.13
2023-04-27T03:58:59.330Z,99576.91
2023-04-27T04:01:43.496Z,99581.19
2023-04-27T04:04:15.389Z,99576.06
2023-04-27T04:06:49.580Z,99583.94
2023-04-27T04:09:24.489Z,99582.16
2023-04-27T04:12:03.801Z,99581.19
2023-04-27T04:14:35.930Z,99587.03
2023-04-27T04:17:13.774Z,99585.91
2023-04-27T04:19:49.146Z,99596.13
2023-04-27T04:22:21.511Z,99603.84
2023-04-27T04:24:53.960Z,99601.09
2023-04-27T04:27:28.750Z,99602.47
2023-04-27T04:30:00.582Z,99607.59
2023-04-27T04:32:38.270Z,99610.94
2023-04-27T04:35:12.381Z,99608.97
2023-04-27T04:37:44.063Z,99611.22
2023-04-27T04:40:15.908Z,99611.63
2023-04-27T04:42:47.721Z,99608.59
2023-04-27T04:45:20.503Z,99620.34
2023-04-27T04:47:55.557Z,99622.16
2023-04-27T04:50:31.804Z,99624.22
2023-04-27T04:53:03.937Z,99631.28
2023-04-27T04:55:39.867Z,99633.22
2023-04-27T05:01:12.588Z,99631.41
2023-04-27T05:03:45.948Z,99624.06
2023-04-27T05:06:18.929Z,99622.00
2023-04-27T05:08:55.981Z,99619.59
2023-04-27T05:11:30.746Z,99628.09
2023-04-27T05:14:02.374Z,99622.69
2023-04-27T05:16:34.124Z,99623.47
2023-04-27T05:19:06.195Z,99628.69
2023-04-27T05:21:37.899Z,99629.06
2023-04-27T05:24:09.712Z,99636.91
2023-04-27T05:26:43.489Z,99628.69
2023-04-27T05:29:15.762Z,99622.78
2023-04-27T05:31:47.913Z,99619.06
2023-04-27T05:34:20.172Z,99626.06
2023-04-27T05:36:53.869Z,99622.91
2023-04-27T05:39:26.745Z,99625.88
2023-04-27T05:41:58.893Z,99625.81
2023-04-27T05:44:31.147Z,99633.34
2023-04-27T05:47:03.179Z,99620.94
2023-04-27T05:49:35.018Z,99622.97
2023-04-27T05:52:06.721Z,99625.97
2023-04-27T05:54:38.558Z,99619.88
2023-04-27T05:57:13.225Z,99626.13
2023-04-27T05:59:45.025Z,99624.81
2023-04-27T06:02:18.409Z,99621.84
2023-04-27T06:04:50.188Z,99625.59
2023-04-27T06:07:21.968Z,99622.75
2023-04-27T06:09:55.815Z,99624.09
2023-04-27T06:12:28.786Z,99626.50
2023-04-27T06:15:00.629Z,99617.84
2023-04-27T06:17:36.243Z,99615.19
2023-04-27T06:20:14.520Z,99610.31
2023-04-27T06:22:49.446Z,99611.72
2023-04-27T06:25:24.405Z,99606.59
2023-04-27T06:28:02.337Z,99615.53
2023-04-27T06:30:38.909Z,99615.59
2023-04-27T06:33:11.437Z,99610.44
2023-04-27T06:35:47.630Z,99608.94
2023-04-27T06:38:19.389Z,99614.00
2023-04-27T06:40:54.461Z,99610.81
2023-04-27T06:43:27.213Z,99616.19
2023-04-27T06:45:59.751Z,99608.88
2023-04-27T06:48:31.818Z,99604.81
2023-04-27T06:51:03.720Z,99603.75
2023-04-27T06:53:36.273Z,99612.16
2023-04-27T06:56:14.560Z,99607.66
2023-04-27T06:58:46.460Z,99613.47
2023-04-27T07:01:18.199Z,99613.13
2023-04-27T07:03:50.038Z,99614.03
2023-04-27T07:06:26.016Z,99613.13
2023-04-27T07:08:57.745Z,99613.03
2023-04-27T07:11:30.878Z,99616.03
2023-04-27T07:14:02.896Z,99604.50
2023-04-27T08:00:16.133Z,99610.22
2023-04-27T08:02:48.374Z,99614.00
2023-04-27T08:05:21.951Z,99614.78
2023-04-27T08:07:56.739Z,99612.41
2023-04-27T08:10:34.576Z,99610.03
2023-04-27T08:13:09.788Z,99602.47
2023-04-27T08:15:41.547Z,99605.91
2023-04-27T08:18:13.318Z,99600.16
2023-04-27T08:20:45.112Z,99605.09
2023-04-27T08:23:18.585Z,99602.34
2023-04-27T08:25:51.625Z,99604.50
2023-04-27T08:28:23.541Z,99596.69
2023-04-27T08:30:55.378Z,99592.72
2023-04-27T08:33:29.223Z,99596.34
2023-04-27T08:36:05.173Z,99599.84
2023-04-27T08:38:39.733Z,99599.38
2023-04-27T08:41:21.433Z,99596.56
2023-04-27T08:43:54.213Z,99595.59
2023-04-27T08:46:37.815Z,99604.75
2023-04-27T08:49:10.049Z,99604.19
2023-04-27T08:51:42.790Z,99608.38
2023-04-27T08:54:14.464Z,99604.34
2023-04-27T08:56:46.595Z,99611.72
2023-04-27T08:59:21.559Z,99614.34
2023-04-27T09:01:54.906Z,99609.44
2023-04-27T09:04:37.908Z,99609.44
2023-04-27T09:07:18.171Z,99604.22
2023-04-27T09:09:50.324Z,99611.03
2023-04-27T09:12:28.495Z,99606.75
2023-04-27T09:15:06.245Z,99604.34
2023-04-27T09:17:41.338Z,99611.31
2023-04-27T09:20:13.651Z,99604.75
2023-04-27T09:22:51.688Z,99607.19
2023-04-27T09:25:33.955Z,99593.25
2023-04-27T09:28:14.417Z,99600.22
2023-04-27T09:31:09.678Z,99603.50
2023-04-27T09:33:41.744Z,99601.16
2023-04-27T09:36:14.937Z,99597.19
2023-04-27T09:38:47.284Z,99590.34
2023-04-27T09:41:19.467Z,99602.91
2023-04-27T09:43:57.068Z,99600.16
2023-04-27T09:46:29.958Z,99595.03
2023-04-27T09:49:04.938Z,99601.84
2023-04-27T09:51:36.660Z,99599.38
2023-04-27T09:54:11.821Z,99596.31
2023-04-27T09:57:16.007Z,99602.06
2023-04-27T10:00:11.087Z,99586.25
2023-04-27T10:03:15.085Z,99581.94
2023-04-27T10:06:28.790Z,99585.88
2023-04-27T10:09:07.066Z,99587.53
2023-04-27T10:12:00.593Z,99588.59
2023-04-27T10:14:33.726Z,99600.63
2023-04-27T10:17:11.086Z,99590.56
2023-04-27T10:19:57.340Z,99591.78
2023-04-27T10:22:56.973Z,99596.84
2023-04-27T10:25:30.672Z,99595.88
2023-04-27T10:28:03.143Z,99590.34
2023-04-27T10:30:38.174Z,99580.84
2023-04-27T10:33:14.147Z,99578.28
2023-04-27T10:36:00.287Z,99580.19
2023-04-27T10:38:33.116Z,99577.75
2023-04-27T10:41:07.529Z,99578.28
2023-04-27T10:44:32.621Z,99567.00
2023-04-27T10:47:19.945Z,99565.19
2023-04-27T10:50:00.322Z,99570.88
2023-04-27T10:52:34.901Z,99577.25
2023-04-27T10:55:13.787Z,99564.88
2023-04-27T10:57:47.748Z,99567.31
2023-04-27T11:00:25.402Z,99572.47
2023-04-27T11:03:11.581Z,99566.63
2023-04-27T11:05:45.286Z,99571.38
2023-04-27T11:08:18.913Z,99568.56
2023-04-27T11:10:52.085Z,99568.34
2023-04-27T11:13:25.464Z,99550.34
2023-04-27T11:15:59.439Z,99557.00
2023-04-27T11:18:35.412Z,99565.31
2023-04-27T11:21:15.236Z,99558.25
2023-04-27T11:23:49.351Z,99556.94
2023-04-27T11:26:22.553Z,99557.97
2023-04-27T11:29:05.680Z,99564.78
2023-04-27T11:31:49.710Z,99558.00
2023-04-27T11:34:34.321Z,99554.81
2023-04-27T11:37:18.062Z,99560.00
2023-04-27T11:39:54.102Z,99546.94
2023-04-27T11:42:31.605Z,99554.84
2023-04-27T11:45:08.308Z,99562.22
2023-04-27T11:47:46.623Z,99563.06
2023-04-27T11:50:19.234Z,99557.50
2023-04-27T11:52:54.831Z,99548.19
2023-04-27T11:55:26.798Z,99560.34
2023-04-27T11:57:59.302Z,99552.78
2023-04-27T12:00:31.225Z,99561.38
2023-04-27T12:03:03.991Z,99557.00
2023-04-27T12:05:36.010Z,99556.00
2023-04-27T12:08:07.763Z,99553.81
2023-04-27T12:10:40.193Z,99560.16
2023-04-27T12:13:12.581Z,99553.69
2023-04-27T12:15:44.572Z,99554.56
2023-04-27T12:18:16.417Z,99556.84
2023-04-27T12:20:48.234Z,99554.72
2023-04-27T12:23:21.387Z,99561.19
2023-04-27T12:25:53.544Z,99548.53
2023-04-27T12:28:25.227Z,99558.44
2023-04-27T12:31:04.005Z,99554.53
2023-04-27T12:33:37.062Z,99555.78
2023-04-27T12:36:08.828Z,99554.41
2023-04-27T12:38:41.645Z,99558.50
2023-04-27T12:41:13.428Z,99560.56
2023-04-27T12:43:45.970Z,99557.28
2023-04-27T12:46:20.680Z,99547.44
2023-04-27T12:48:52.538Z,99555.47
2023-04-27T12:51:24.368Z,99552.56
2023-04-27T12:54:00.903Z,99549.19
2023-04-27T12:56:34.323Z,99547.09
2023-04-27T12:59:07.518Z,99547.53
2023-04-27T13:01:42.215Z,99543.53
2023-04-27T13:04:20.656Z,99550.72
2023-04-27T13:06:53.116Z,99545.53
2023-04-27T13:09:24.882Z,99550.31
2023-04-27T13:11:58.714Z,99537.38
2023-04-27T13:14:34.814Z,99538.41
2023-04-27T13:17:09.712Z,99535.91
2023-04-27T13:19:41.419Z,99533.03
2023-04-27T13:22:13.380Z,99529.56
2023-04-27T13:24:45.048Z,99531.22
2023-04-27T13:27:17.303Z,99535.31
2023-04-27T13:29:51.929Z,99529.38
2023-04-27T13:32:23.627Z,99526.09
2023-04-27T13:34:55.446Z,99524.25
2023-04-27T13:37:27.949Z,99522.59
2023-04-27T13:39:59.710Z,99516.66
2023-04-27T13:42:31.458Z,99516.03
2023-04-27T13:45:04.673Z,99514.81
2023-04-27T13:47:42.381Z,99513.38
2023-04-27T13:50:14.359Z,99513.78
2023-04-27T13:52:46.356Z,99510.31
2023-04-27T13:55:18.339Z,99511.91
2023-04-27T13:57:50.067Z,99515.84
2023-04-27T14:00:21.873Z,99510.91
2023-04-27T14:02:56.236Z,99515.44
2023-04-27T14:05:28.134Z,99508.88
2023-04-27T14:08:03.288Z,99516.56
2023-04-27T14:10:37.060Z,99519.09
2023-04-27T14:13:09.157Z,99515.03
2023-04-27T14:15:41.548Z,99521.53
2023-04-27T14:18:13.453Z,99516.97
2023-04-27T14:20:45.430Z,99511.44
2023-04-27T14:23:17.205Z,99505.53
2023-04-27T14:25:48.901Z,99494.41
2023-04-27T14:28:20.698Z,99495.38
2023-04-27T14:30:52.448Z,99497.44
2023-04-27T14:33:24.223Z,99498.13
2023-04-27T14:35:56.556Z,99502.81
2023-04-27T14:38:31.827Z,99505.47
2023-04-27T14:41:03.575Z,99502.25
2023-04-27T14:43:38.564Z,99494.28
2023-04-27T14:46:20.218Z,99504.31
2023-04-27T14:48:53.048Z,99494.22
2023-04-27T14:51:24.766Z,99496.66
2023-04-27T14:53:56.738Z,99492.59
2023-04-27T14:56:28.446Z,99495.50
2023-04-27T14:59:02.005Z,99495.16
2023-04-27T15:01:33.779Z,99491.25
2023-04-27T15:04:05.778Z,99487.75
2023-04-27T15:06:37.910Z,99487.38
2023-04-27T15:09:09.781Z,99494.94
2023-04-27T15:11:44.911Z,99487.78
2023-04-27T15:14:17.685Z,99485.72
2023-04-27T15:16:49.828Z,99488.22
2023-04-27T15:19:21.621Z,99485.91
2023-04-27T15:21:53.355Z,99485.28
2023-04-27T15:24:29.156Z,99485.66
2023-04-27T15:27:01.596Z,99491.38
2023-04-27T15:29:33.585Z,99494.66
2023-04-27T15:32:05.452Z,99492.44
2023-04-27T15:34:37.340Z,99487.34
2023-04-27T15:37:10.624Z,99488.22
2023-04-27T15:39:43.209Z,99492.31
2023-04-27T15:42:16.775Z,99484.28
2023-04-27T15:44:48.498Z,99481.19
2023-04-27T15:47:20.244Z,99482.34
2023-04-27T15:49:57.464Z,99482.47
2023-04-27T15:52:29.792Z,99484.13
2023-04-27T15:55:01.797Z,99482.66
2023-04-27T15:57:34.940Z,99474.53
2023-04-27T16:00:10.341Z,99476.59
2023-04-27T16:02:44.856Z,99482.31
2023-04-27T16:05:20.697Z,99472.28
2023-04-27T16:07:52.294Z,99467.19
2023-04-27T16:10:24.210Z,99469.47
2023-04-27T16:12:58.899Z,99471.31
2023-04-27T16:15:30.644Z,99475.13
2023-04-27T16:18:02.605Z,99469.28
2023-04-27T16:20:36.517Z,99468.38
2023-04-27T16:23:08.739Z,99467.72
2023-04-27T16:25:41.542Z,99465.41
2023-04-27T16:28:13.314Z,99474.56
2023-04-27T16:30:45.239Z,99473.84
2023-04-27T16:33:19.318Z,99466.91
2023-04-27T16:35:51.883Z,99468.44
2023-04-27T16:38:23.896Z,99465.31
2023-04-27T16:40:56.378Z,99472.56
2023-04-27T16:43:29.920Z,99457.63
2023-04-27T16:46:01.737Z,99468.19
2023-04-27T16:48:33.609Z,99472.53
2023-04-27T16:51:09.397Z,99472.66
2023-04-27T16:53:41.382Z,99465.16
2023-04-27T16:56:14.237Z,99471.28
2023-04-27T16:58:48.414Z,99472.41
2023-04-27T17:01:20.244Z,99469.66
2023-04-27T17:03:52.180Z,99462.09
2023-04-27T17:06:28.406Z,99468.50
2023-04-27T17:09:00.199Z,99470.06
2023-04-27T17:11:32.443Z,99467.16
2023-04-27T17:14:04.205Z,99466.44
2023-04-27T17:16:36.006Z,99468.56
2023-04-27T17:19:07.764Z,99469.13
2023-04-27T17:21:39.513Z,99461.88
2023-04-27T17:24:11.424Z,99471.41
2023-04-27T17:26:43.258Z,99465.94
2023-04-27T17:29:17.939Z,99473.78
2023-04-27T17:31:50.578Z,99468.56
2023-04-27T17:34:23.403Z,99475.06
2023-04-27T17:36:55.273Z,99476.97
2023-04-27T17:39:27.102Z,99471.22
2023-04-27T17:41:59.239Z,99470.28
2023-04-27T17:44:32.674Z,99464.53
2023-04-27T17:47:06.439Z,99467.53
2023-04-27T17:49:39.715Z,99460.75
2023-04-27T17:52:11.516Z,99469.72
2023-04-27T17:54:43.358Z,99478.41
2023-04-27T17:57:15.194Z,99472.81
2023-04-27T17:59:49.988Z,99472.06
2023-04-27T18:02:22.250Z,99469.94
2023-04-27T18:04:53.993Z,99470.28
2023-04-27T18:07:25.804Z,99468.34
2023-04-27T18:10:02.379Z,99475.47
2023-04-27T18:12:34.872Z,99478.31
2023-04-27T18:15:09.365Z,99481.50
2023-04-27T18:17:41.905Z,99489.97
2023-04-27T18:20:15.310Z,99489.22
2023-04-27T18:22:48.574Z,99489.94
2023-04-27T18:25:20.417Z,99496.94
2023-04-27T18:27:55.506Z,99498.75
2023-04-27T18:30:27.348Z,99500.56
2023-04-27T18:32:59.394Z,99506.03
2023-04-27T18:35:31.404Z,99517.81
2023-04-27T18:38:03.661Z,99520.81
2023-04-27T18:40:41.457Z,99521.34
2023-04-27T18:43:13.290Z,99521.72
2023-04-27T18:45:45.251Z,99538.75
2023-04-27T18:48:17.637Z,99530.50
2023-04-27T18:50:49.508Z,99537.63
2023-04-27T18:53:21.604Z,99542.25
2023-04-27T18:55:53.293Z,99534.69
2023-04-27T18:58:25.048Z,99533.19
2023-04-27T19:00:59.073Z,99537.19
2023-04-27T19:03:31.082Z,99537.88
2023-04-27T19:06:03.105Z,99538.56
2023-04-27T19:08:37.825Z,99544.84
2023-04-27T19:11:09.664Z,99541.72
2023-04-27T19:13:43.276Z,99536.94
2023-04-27T19:16:15.495Z,99543.22
2023-04-27T19:18:50.444Z,99545.34
2023-04-27T19:21:22.549Z,99548.69
2023-04-27T19:23:54.668Z,99543.75
2023-04-27T19:26:29.089Z,99547.38
2023-04-27T19:29:05.637Z,99540.78
2023-04-27T19:31:37.492Z,99545.25
2023-04-27T19:34:09.352Z,99545.56
2023-04-27T19:36:41.065Z,99539.66
2023-04-27T19:39:14.047Z,99547.75
2023-04-27T19:41:46.132Z,99559.66
2023-04-27T19:44:19.431Z,99549.25
2023-04-27T19:46:52.220Z,99554.88
2023-04-27T19:49:24.076Z,99549.94
2023-04-27T19:51:55.935Z,99555.72
2023-04-27T19:54:31.120Z,99554.59
2023-04-27T19:57:03.950Z,99555.25
2023-04-27T19:59:36.219Z,99561.03
2023-04-27T20:02:08.151Z,99558.88
2023-04-27T20:04:41.447Z,99561.56
2023-04-27T20:07:13.394Z,99572.59
2023-04-27T20:09:47.138Z,99567.81
2023-04-27T20:12:40.447Z,99562.88
2023-04-27T20:15:10.659Z,99571.47
2023-04-27T20:17:42.464Z,99576.72
2023-04-27T20:20:14.840Z,99581.19
2023-04-27T20:22:46.967Z,99578.19
2023-04-27T20:25:19.627Z,99579.66
2023-04-27T20:27:51.865Z,99578.34
2023-04-27T20:30:23.661Z,99576.84
2023-04-27T20:32:56.465Z,99579.50
2023-04-27T20:35:33.636Z,99578.34
2023-04-27T20:38:10.925Z,99569.06
2023-04-27T20:40:42.706Z,99570.53
2023-04-27T20:43:15.753Z,99562.94
2023-04-27T20:45:47.549Z,99563.44
2023-04-27T20:48:19.379Z,99564.53
2023-04-27T20:50:51.839Z,99550.50
2023-04-27T20:53:23.748Z,99552.50
2023-04-27T20:55:56.952Z,99543.75
2023-04-27T20:58:28.693Z,99539.47
2023-04-27T21:01:03.470Z,99542.41
2023-04-27T21:03:35.772Z,99542.06
2023-04-27T21:06:07.618Z,99550.00
2023-04-27T21:08:40.409Z,99549.97
2023-04-27T21:11:18.054Z,99541.53
2023-04-27T21:13:50.041Z,99544.34
2023-04-27T21:16:24.607Z,99540.22
2023-04-27T21:18:56.809Z,99535.09
2023-04-27T21:21:28.650Z,99538.06
2023-04-27T21:24:07.417Z,99539.53
2023-04-27T21:26:40.060Z,99532.41
2023-04-27T21:29:14.442Z,99533.72
2023-04-27T21:31:46.256Z,99534.16
2023-04-27T21:34:18.111Z,99534.16
2023-04-27T21:36:53.001Z,99524.59
2023-04-27T21:39:24.619Z,99530.88
2023-04-27T21:41:56.377Z,99536.59
2023-04-27T21:44:28.153Z,99535.81
2023-04-27T21:47:01.257Z,99530.00
2023-04-27T21:49:32.968Z,99536.44
2023-04-27T21:52:05.000Z,99528.50
2023-04-27T21:54:37.425Z,99526.03
2023-04-27T21:57:09.181Z,99526.81
2023-04-27T21:59:41.060Z,99519.38
2023-04-27T22:02:13.652Z,99530.41
2023-04-27T22:04:46.824Z,99517.50
2023-04-27T22:07:21.637Z,99531.66
2023-04-27T22:09:55.396Z,99517.16
2023-04-27T22:12:27.209Z,99521.75
2023-04-27T22:14:58.932Z,99519.28
2023-04-27T22:17:30.684Z,99523.66
2023-04-27T22:20:05.009Z,99527.75
2023-04-27T22:22:37.816Z,99526.41
2023-04-27T22:25:14.060Z,99523.09
2023-04-27T22:27:45.806Z,99523.25
2023-04-27T22:30:17.640Z,99528.00
2023-04-27T22:32:50.298Z,99523.19
2023-04-27T22:35:27.475Z,99516.28
2023-04-27T22:38:00.186Z,99527.09
2023-04-27T22:40:31.925Z,99521.31
2023-04-27T22:43:03.884Z,99515.69
2023-04-27T22:45:38.095Z,99513.53
2023-04-27T22:48:11.119Z,99514.97
2023-04-27T22:50:43.197Z,99512.47
2023-04-27T22:53:14.967Z,99508.34
2023-04-27T22:55:46.724Z,99514.75
2023-04-27T22:58:18.493Z,99512.25
2023-04-27T23:00:53.239Z,99515.72
2023-04-27T23:03:25.048Z,99509.91
2023-04-27T23:05:59.429Z,99503.31
2023-04-27T23:08:31.472Z,99501.81
2023-04-27T23:11:03.752Z,99510.97
2023-04-27T23:13:35.515Z,99514.06
2023-04-27T23:16:07.841Z,99513.38
2023-04-27T23:18:39.679Z,99518.00
2023-04-27T23:21:11.857Z,99511.22
2023-04-27T23:23:43.710Z,99515.00
2023-04-27T23:26:16.615Z,99518.00
2023-04-27T23:28:49.725Z,99515.84
2023-04-27T23:31:23.128Z,99513.34
2023-04-27T23:33:54.942Z,99509.22
2023-04-27T23:36:26.751Z,99509.50
2023-04-27T23:38:58.468Z,99501.38
2023-04-27T23:41:30.209Z,99507.94
2023-04-27T23:44:08.546Z,99510.31
2023-04-27T23:46:40.289Z,99504.53
2023-04-27T23:49:12.153Z,99505.50
2023-04-27T23:51:43.885Z,99507.31
2023-04-27T23:54:16.224Z,99506.47
2023-04-27T23:56:50.558Z,99509.41
2023-04-27T23:59:22.302Z,99502.63
